Time;durP1;ratioP1;P1;durP2;ratioP2;P2;SDS_P1;SDS_P2;PMS_P1;PMS_P2;Temp;Humidity;BMP_temperature;BMP_pressure;BME280_temperature;BME280_humidity;BME280_pressure;Samples;Min_cycle;Max_cycle;Signal;HPM_P1;HPM_P2
2022/07/29 00:02:09;;;;;;;5.63;1.40;;;;;;;19.50;55.83;100394.63;5005223;28;20042;-75
2022/07/29 00:04:35;;;;;;;2.83;1.20;;;;;;;19.49;54.93;100391.00;4995971;28;20026;-75
2022/07/29 00:07:01;;;;;;;3.80;1.33;;;;;;;19.45;55.78;100383.66;5001197;28;20069;-75
2022/07/29 00:09:26;;;;;;;4.80;1.27;;;;;;;19.43;57.34;100382.00;5006069;28;20026;-75
2022/07/29 00:11:51;;;;;;;4.35;1.48;;;;;;;19.43;56.42;100381.19;4993218;28;20041;-75
2022/07/29 00:14:17;;;;;;;2.92;1.30;;;;;;;19.40;56.10;100382.72;5012060;28;20026;-75
2022/07/29 00:16:42;;;;;;;2.65;1.20;;;;;;;19.39;54.74;100380.25;4975364;28;20107;-75
2022/07/29 00:19:08;;;;;;;5.28;1.42;;;;;;;19.34;55.15;100372.06;4985704;28;20041;-75
2022/07/29 00:21:33;;;;;;;3.05;1.10;;;;;;;19.31;56.31;100365.16;5010416;28;20091;-75
2022/07/29 00:23:59;;;;;;;2.58;1.23;;;;;;;19.26;55.34;100368.22;4982459;28;20508;-75
2022/07/29 00:26:25;;;;;;;3.55;1.30;;;;;;;19.22;55.57;100372.09;4998443;28;20033;-75
2022/07/29 00:28:50;;;;;;;3.78;1.30;;;;;;;19.17;55.99;100373.97;4979574;28;20026;-75
2022/07/29 00:31:15;;;;;;;3.45;1.27;;;;;;;19.17;55.62;100367.53;4957358;28;20029;-75
2022/07/29 00:33:41;;;;;;;5.43;1.60;;;;;;;19.17;56.93;100367.53;5008205;28;20474;-75
2022/07/29 00:36:07;;;;;;;4.82;1.40;;;;;;;19.18;56.31;100366.34;4983671;28;20029;-75
2022/07/29 00:38:32;;;;;;;4.30;1.40;;;;;;;19.11;56.06;100366.97;5016741;28;20030;-75
2022/07/29 00:40:58;;;;;;;4.07;1.10;;;;;;;19.13;56.95;100363.78;4987424;28;20030;-75
2022/07/29 00:43:23;;;;;;;5.15;1.60;;;;;;;19.14;55.81;100357.81;4994956;28;20034;-76
2022/07/29 00:45:48;;;;;;;3.08;1.40;;;;;;;19.11;56.00;100358.53;4996660;28;20033;-75
2022/07/29 00:48:14;;;;;;;4.30;1.40;;;;;;;19.10;56.50;100358.88;5017482;28;20079;-75
2022/07/29 00:50:40;;;;;;;2.83;1.23;;;;;;;19.04;56.43;100357.47;5009618;28;20030;-75
2022/07/29 00:53:06;;;;;;;2.75;1.20;;;;;;;19.04;56.50;100351.84;4982481;28;20071;-75
2022/07/29 00:55:32;;;;;;;3.70;1.48;;;;;;;19.03;57.33;100355.81;4988652;28;20457;-75
2022/07/29 00:57:57;;;;;;;5.50;1.50;;;;;;;19.04;57.02;100349.84;4984091;28;20026;-75
2022/07/29 01:00:24;;;;;;;3.50;1.10;;;;;;;19.03;57.19;100348.22;5024580;28;20033;-75
2022/07/29 01:02:50;;;;;;;3.53;1.20;;;;;;;19.04;57.28;100346.22;4978808;28;20064;-74
2022/07/29 01:05:19;;;;;;;3.90;1.27;;;;;;;19.06;56.96;100349.50;5004819;28;20037;-74
2022/07/29 01:07:45;;;;;;;4.30;1.27;;;;;;;19.05;55.68;100353.47;5009817;28;20034;-75
2022/07/29 01:10:11;;;;;;;3.70;1.30;;;;;;;19.03;56.51;100344.56;4998900;28;20036;-75
2022/07/29 01:12:37;;;;;;;3.55;1.50;;;;;;;19.00;55.71;100353.72;4998078;28;20053;-75
2022/07/29 01:15:04;;;;;;;2.50;1.27;;;;;;;19.00;55.85;100356.53;4990067;28;20072;-75
2022/07/29 01:17:45;;;;;;;3.30;1.17;;;;;;;18.95;55.80;100349.97;5004970;28;20100;-75
2022/07/29 01:20:39;;;;;;;2.45;1.17;;;;;;;18.96;55.27;100348.81;4980817;28;20052;-75
2022/07/29 01:23:34;;;;;;;3.20;1.15;;;;;;;18.92;55.95;100339.44;5010756;28;20030;-75
2022/07/29 01:26:04;;;;;;;5.28;1.13;;;;;;;18.89;55.67;100342.97;5016057;28;20103;-75
2022/07/29 01:28:42;;;;;;;3.05;1.38;;;;;;;18.89;56.39;100345.78;5027398;28;20034;-75
2022/07/29 01:31:07;;;;;;;2.88;1.40;;;;;;;18.86;56.12;100342.84;5026670;28;20044;-75
2022/07/29 01:33:48;;;;;;;3.30;1.25;;;;;;;18.85;56.01;100344.03;4968552;28;20021;-75
2022/07/29 01:36:53;;;;;;;5.28;1.20;;;;;;;18.86;55.81;100338.06;4969473;28;20038;-75
2022/07/29 01:39:41;;;;;;;4.45;1.60;;;;;;;18.84;56.44;100340.41;4976090;28;20080;-75
2022/07/29 01:42:35;;;;;;;3.42;1.60;;;;;;;18.86;56.42;100340.88;4996232;28;20041;-74
2022/07/29 01:45:21;;;;;;;5.15;1.50;;;;;;;18.86;56.56;100348.47;5000316;28;20045;-75
2022/07/29 01:47:58;;;;;;;5.13;1.83;;;;;;;18.78;57.23;100344.63;4989801;28;20023;-74
2022/07/29 01:50:31;;;;;;;2.75;1.30;;;;;;;18.79;57.31;100340.63;4969730;28;20022;-74
2022/07/29 01:52:58;;;;;;;2.38;1.30;;;;;;;18.81;56.40;100341.09;4996508;28;20497;-74
2022/07/29 01:55:27;;;;;;;3.75;1.50;;;;;;;18.84;56.05;100340.41;4994216;28;20029;-75
2022/07/29 01:57:52;;;;;;;3.70;1.60;;;;;;;18.84;56.09;100339.59;5005773;28;20030;-75
2022/07/29 02:00:18;;;;;;;2.95;1.20;;;;;;;18.77;56.20;100340.16;4966634;28;20441;-75
2022/07/29 02:02:44;;;;;;;4.03;1.70;;;;;;;18.78;56.71;100336.19;4977285;28;20080;-75
2022/07/29 02:05:10;;;;;;;2.20;0.98;;;;;;;18.76;56.25;100344.16;4994961;28;20690;-75
2022/07/29 02:07:37;;;;;;;4.60;1.20;;;;;;;18.79;56.91;100345.44;4997604;28;20421;-75
2022/07/29 02:10:03;;;;;;;2.65;1.30;;;;;;;18.67;57.67;100340.63;4992608;28;20065;-75
2022/07/29 02:12:29;;;;;;;5.95;1.58;;;;;;;18.64;59.42;100341.34;4989983;28;20040;-75
2022/07/29 02:14:54;;;;;;;3.28;1.60;;;;;;;18.59;58.36;100339.56;4991543;28;20033;-75
2022/07/29 02:17:32;;;;;;;5.35;1.20;;;;;;;18.61;58.55;100342.84;5008154;28;20041;-75
2022/07/29 02:19:59;;;;;;;7.88;1.60;;;;;;;18.65;57.84;100343.78;4967664;28;20057;-76
2022/07/29 02:22:26;;;;;;;7.38;1.70;;;;;;;18.66;56.76;100342.59;5005950;28;20593;-76
2022/07/29 02:24:51;;;;;;;4.40;1.42;;;;;;;18.64;56.94;100344.97;4985986;28;20029;-76
2022/07/29 02:27:17;;;;;;;4.38;1.55;;;;;;;18.65;57.66;100337.34;4953803;28;20030;-76
2022/07/29 02:29:43;;;;;;;2.63;1.15;;;;;;;18.68;57.28;100350.69;5001455;28;20042;-76
2022/07/29 02:32:09;;;;;;;2.25;1.30;;;;;;;18.71;56.11;100345.16;4971444;28;20065;-75
2022/07/29 02:34:34;;;;;;;3.72;1.45;;;;;;;18.72;56.41;100352.47;4972067;28;20033;-76
2022/07/29 02:37:00;;;;;;;3.00;1.20;;;;;;;18.75;56.19;100346.16;4986178;28;20504;-76
2022/07/29 02:39:25;;;;;;;5.22;1.20;;;;;;;18.75;56.70;100342.53;4981728;28;20066;-75
2022/07/29 02:41:52;;;;;;;2.88;1.08;;;;;;;18.75;55.74;100346.16;4964819;28;20030;-76
2022/07/29 02:44:19;;;;;;;3.33;1.20;;;;;;;18.75;55.89;100346.16;4965918;28;20042;-76
2022/07/29 02:46:56;;;;;;;2.28;1.30;;;;;;;18.74;55.57;100338.06;4975024;28;20533;-76
2022/07/29 02:49:37;;;;;;;2.20;1.10;;;;;;;18.74;56.65;100340.88;5010157;28;20036;-76
2022/07/29 02:52:03;;;;;;;2.30;1.35;;;;;;;18.75;56.31;100342.53;5018372;28;20046;-76
2022/07/29 02:54:42;;;;;;;4.18;1.30;;;;;;;18.74;56.41;100335.25;4987825;28;20025;-76
2022/07/29 02:57:19;;;;;;;3.53;1.25;;;;;;;18.76;55.66;100335.72;4969171;28;20121;-76
2022/07/29 02:59:44;;;;;;;3.47;1.48;;;;;;;18.73;56.60;100339.22;4976357;28;20026;-76
2022/07/29 03:02:10;;;;;;;6.60;1.50;;;;;;;18.68;57.13;100345.88;4966094;28;20405;-76
2022/07/29 03:04:35;;;;;;;4.07;1.30;;;;;;;18.67;57.09;100346.25;4996124;28;20386;-75
2022/07/29 03:07:01;;;;;;;3.45;1.40;;;;;;;18.62;57.46;100352.09;4984917;28;20034;-75
2022/07/29 03:09:27;;;;;;;3.72;1.30;;;;;;;18.63;57.56;100353.75;4987354;28;20034;-75
2022/07/29 03:11:54;;;;;;;3.15;1.20;;;;;;;18.58;57.94;100356.78;4997059;28;20474;-75
2022/07/29 03:14:19;;;;;;;5.63;1.63;;;;;;;18.56;57.11;100354.34;4980487;28;20046;-76
2022/07/29 03:16:45;;;;;;;3.85;1.45;;;;;;;18.59;56.30;100352.81;4983244;28;20039;-75
2022/07/29 03:19:10;;;;;;;3.13;1.30;;;;;;;18.58;56.39;100353.97;4989903;28;20042;-76
2022/07/29 03:21:36;;;;;;;2.00;1.10;;;;;;;18.60;56.42;100351.63;5007475;28;20033;-75
2022/07/29 03:24:01;;;;;;;3.75;1.23;;;;;;;18.63;56.75;100353.75;5016972;28;20030;-75
2022/07/29 03:26:27;;;;;;;2.80;1.20;;;;;;;18.61;56.53;100348.47;4996212;28;20461;-75
2022/07/29 03:28:52;;;;;;;5.43;1.52;;;;;;;18.63;56.35;100345.31;4990982;28;20057;-75
2022/07/29 03:31:17;;;;;;;3.90;1.33;;;;;;;18.62;57.19;100340.84;4986931;28;20031;-75
2022/07/29 03:33:43;;;;;;;5.18;1.58;;;;;;;18.64;56.14;100350.59;5014031;28;20026;-75
2022/07/29 03:36:08;;;;;;;2.08;1.00;;;;;;;18.67;55.83;100344.25;5001935;28;20038;-75
2022/07/29 03:38:34;;;;;;;4.63;1.30;;;;;;;18.66;56.85;100336.97;4991030;28;20025;-75
2022/07/29 03:41:03;;;;;;;4.97;1.33;;;;;;;18.63;56.88;100342.50;4948183;28;20054;-74
2022/07/29 03:43:33;;;;;;;4.05;1.30;;;;;;;18.63;56.81;100342.50;4988175;28;20037;-75
2022/07/29 03:45:58;;;;;;;1.40;1.05;;;;;;;18.67;56.06;100343.44;4977857;28;20026;-75
2022/07/29 03:48:24;;;;;;;3.58;1.10;;;;;;;18.67;55.70;100343.44;4998752;28;20064;-75
2022/07/29 03:50:50;;;;;;;3.65;1.50;;;;;;;18.68;55.87;100347.88;4976051;28;20033;-75
2022/07/29 03:53:15;;;;;;;2.70;1.23;;;;;;;18.67;55.81;100343.44;4996005;28;20061;-75
2022/07/29 03:55:43;;;;;;;3.35;1.30;;;;;;;18.68;55.61;100342.25;4994706;28;20060;-75
2022/07/29 03:58:08;;;;;;;2.13;1.20;;;;;;;18.66;55.70;100348.22;5013531;28;20029;-75
2022/07/29 04:00:34;;;;;;;4.82;1.60;;;;;;;18.57;57.71;100349.53;5003726;28;20029;-75
2022/07/29 04:03:03;;;;;;;4.00;1.30;;;;;;;18.61;56.58;100348.47;4988725;28;20034;-75
2022/07/29 04:05:28;;;;;;;2.95;1.33;;;;;;;18.61;56.42;100350.44;4960466;28;20029;-75
2022/07/29 04:07:54;;;;;;;6.07;1.30;;;;;;;18.61;56.16;100356.06;5010241;28;20034;-75
2022/07/29 04:10:19;;;;;;;3.45;1.30;;;;;;;18.63;55.90;100359.38;5018133;28;20477;-75
2022/07/29 04:12:44;;;;;;;5.85;1.58;;;;;;;18.63;55.77;100350.94;5014194;28;20034;-75
2022/07/29 04:15:10;;;;;;;2.55;1.42;;;;;;;18.63;56.56;100348.13;5010056;28;20103;-75
2022/07/29 04:17:36;;;;;;;2.80;1.02;;;;;;;18.67;55.80;100349.88;5006529;28;20081;-75
2022/07/29 04:20:01;;;;;;;3.30;1.40;;;;;;;18.64;56.01;100356.22;5032083;28;20053;-75
2022/07/29 04:22:27;;;;;;;3.50;1.30;;;;;;;18.65;55.55;100357.03;5016158;28;20482;-74
2022/07/29 04:24:52;;;;;;;4.95;1.48;;;;;;;18.63;55.92;100360.19;4986961;28;20030;-75
2022/07/29 04:27:18;;;;;;;2.70;1.13;;;;;;;18.64;56.09;100355.41;5018653;28;20029;-75
2022/07/29 04:29:43;;;;;;;4.68;1.20;;;;;;;18.65;55.77;100360.66;4980156;28;20029;-75
2022/07/29 04:32:09;;;;;;;4.00;1.33;;;;;;;18.68;55.27;100353.50;4999570;28;20529;-75
2022/07/29 04:34:34;;;;;;;3.00;1.30;;;;;;;18.66;55.51;100359.47;4974860;28;20031;-75
2022/07/29 04:37:00;;;;;;;2.10;1.25;;;;;;;18.65;55.57;100351.41;4989570;28;20033;-75
2022/07/29 04:39:25;;;;;;;2.33;1.10;;;;;;;18.67;55.03;100352.69;4992446;28;20025;-75
2022/07/29 04:41:51;;;;;;;1.92;1.25;;;;;;;18.69;54.88;100357.94;5029481;28;20022;-75
2022/07/29 04:44:16;;;;;;;3.13;1.10;;;;;;;18.68;54.70;100356.31;5000576;28;20026;-75
2022/07/29 04:46:42;;;;;;;3.50;1.33;;;;;;;18.65;55.23;100363.47;5032507;28;20490;-75
2022/07/29 04:49:07;;;;;;;3.30;1.30;;;;;;;18.65;54.74;100362.66;5004825;28;20057;-75
2022/07/29 04:51:33;;;;;;;3.25;1.20;;;;;;;18.60;55.07;100366.50;5027656;28;20097;-75
2022/07/29 04:53:59;;;;;;;2.75;1.30;;;;;;;18.60;55.13;100365.69;4997722;28;20031;-75
2022/07/29 04:56:24;;;;;;;4.07;1.35;;;;;;;18.56;54.95;100365.59;5030369;28;20390;-75
2022/07/29 04:58:50;;;;;;;2.20;1.40;;;;;;;18.60;55.23;100365.69;5008542;28;20097;-76
2022/07/29 05:01:15;;;;;;;3.88;1.20;;;;;;;18.59;55.65;100372.50;4990752;28;20076;-75
2022/07/29 05:03:41;;;;;;;3.53;1.23;;;;;;;18.56;55.31;100374.03;5010100;28;20083;-75
2022/07/29 05:06:06;;;;;;;3.25;1.00;;;;;;;18.56;55.09;100376.84;4996410;28;20030;-75
2022/07/29 05:08:32;;;;;;;4.03;0.98;;;;;;;18.55;55.24;100375.19;5002401;28;20036;-75
2022/07/29 05:10:57;;;;;;;1.95;1.00;;;;;;;18.54;55.98;100373.53;4988023;28;20113;-75
2022/07/29 05:13:23;;;;;;;2.85;1.05;;;;;;;18.50;55.23;100376.25;4977360;28;20037;-75
2022/07/29 05:15:48;;;;;;;3.20;1.40;;;;;;;18.51;55.40;100375.06;4989030;28;20084;-75
2022/07/29 05:18:14;;;;;;;2.58;1.00;;;;;;;18.49;55.35;100383.03;4983520;28;20496;-76
2022/07/29 05:20:39;;;;;;;2.17;1.15;;;;;;;18.50;55.51;100384.69;4987152;28;20060;-75
2022/07/29 05:23:05;;;;;;;2.22;1.00;;;;;;;18.51;56.44;100383.50;5002198;28;20041;-76
2022/07/29 05:25:31;;;;;;;3.42;1.20;;;;;;;18.56;56.61;100382.47;4992936;28;20034;-76
2022/07/29 05:27:56;;;;;;;2.53;1.25;;;;;;;18.57;55.86;100388.91;4965053;28;20518;-76
2022/07/29 05:30:22;;;;;;;2.58;1.30;;;;;;;18.58;56.42;100396.97;4975298;28;20030;-64
2022/07/29 05:32:47;;;;;;;3.50;1.55;;;;;;;18.62;56.57;100397.09;4979657;28;20034;-64
2022/07/29 05:35:13;;;;;;;2.85;1.10;;;;;;;18.64;57.05;100395.59;4958074;28;20030;-64
2022/07/29 05:37:39;;;;;;;1.55;1.20;;;;;;;18.71;56.25;100395.00;5007634;28;20042;-64
2022/07/29 05:40:05;;;;;;;2.88;1.40;;;;;;;18.73;57.13;100401.09;4993065;28;20041;-64
2022/07/29 05:42:30;;;;;;;2.20;1.15;;;;;;;18.78;58.06;100400.91;4998534;28;20031;-63
2022/07/29 05:44:56;;;;;;;3.33;1.33;;;;;;;18.83;59.72;100397.00;4960012;28;20037;-63
2022/07/29 05:47:22;;;;;;;1.92;1.30;;;;;;;18.89;61.38;100395.63;4987683;28;20034;-63
2022/07/29 05:49:47;;;;;;;3.05;1.42;;;;;;;18.96;59.40;100399.44;4993239;28;20058;-63
2022/07/29 05:52:13;;;;;;;2.38;1.20;;;;;;;19.07;58.81;100396.16;5008358;28;20022;-64
2022/07/29 05:54:38;;;;;;;1.27;1.00;;;;;;;19.21;57.99;100407.88;4986160;28;20030;-64
2022/07/29 05:57:05;;;;;;;2.47;1.13;;;;;;;19.36;57.89;100407.13;4997099;28;20053;-64
2022/07/29 05:59:31;;;;;;;5.32;1.15;;;;;;;19.55;56.53;100409.28;5007349;28;20148;-64
2022/07/29 06:01:57;;;;;;;3.35;1.23;;;;;;;19.74;57.18;100405.84;4994251;28;20030;-63
2022/07/29 06:04:22;;;;;;;4.13;1.30;;;;;;;19.95;55.26;100413.28;4994867;28;20391;-63
2022/07/29 06:06:48;;;;;;;4.32;1.20;;;;;;;20.14;56.58;100415.41;4981658;28;20088;-64
2022/07/29 06:09:13;;;;;;;4.93;1.50;;;;;;;20.29;57.59;100409.78;4961269;28;20039;-64
2022/07/29 06:11:39;;;;;;;4.35;1.50;;;;;;;20.45;58.70;100417.44;4990450;28;20041;-64
2022/07/29 06:14:04;;;;;;;4.00;1.58;;;;;;;20.58;58.28;100415.38;5010243;28;20041;-64
2022/07/29 06:16:30;;;;;;;3.80;1.40;;;;;;;20.68;57.05;100417.66;5005024;28;20037;-64
2022/07/29 06:18:55;;;;;;;3.72;1.40;;;;;;;20.79;56.03;100423.56;5000831;28;20088;-64
2022/07/29 06:21:21;;;;;;;3.67;1.73;;;;;;;20.91;56.38;100417.81;4988169;28;21113;-64
2022/07/29 06:23:46;;;;;;;4.20;1.75;;;;;;;21.02;56.01;100421.72;4995558;28;20026;-64
2022/07/29 06:26:12;;;;;;;2.63;1.30;;;;;;;21.18;54.48;100414.03;4990494;28;20034;-64
2022/07/29 06:28:37;;;;;;;2.15;1.48;;;;;;;21.34;53.35;100415.97;4984904;28;20037;-68
2022/07/29 06:31:03;;;;;;;4.80;1.70;;;;;;;21.50;52.78;100416.75;4983192;28;20407;-64
2022/07/29 06:33:28;;;;;;;1.83;1.10;;;;;;;21.66;52.51;100418.72;5009948;28;20029;-64
2022/07/29 06:35:54;;;;;;;3.13;1.30;;;;;;;21.81;51.98;100412.16;4971100;28;20061;-64
2022/07/29 06:38:19;;;;;;;3.58;1.33;;;;;;;21.97;52.68;100417.72;5003153;28;20395;-64
2022/07/29 06:41:00;;;;;;;5.22;1.10;;;;;;;22.07;53.05;100415.13;4982896;28;20077;-64
2022/07/29 06:43:37;;;;;;;4.40;1.48;;;;;;;22.18;52.32;100420.19;4983820;28;20037;-64
2022/07/29 06:46:09;;;;;;;2.58;1.40;;;;;;;22.31;51.16;100427.28;4995284;28;20088;-64
2022/07/29 06:48:34;;;;;;;4.63;1.40;;;;;;;;;;5008589;28;20034;-64
2022/07/29 06:51:00;;;;;;;4.72;1.38;;;;;;;22.56;50.67;100438.25;5002599;28;20188;-64
2022/07/29 06:53:26;;;;;;;4.30;1.40;;;;;;;22.69;49.68;100434.03;4970252;28;20038;-64
2022/07/29 06:55:51;;;;;;;4.07;1.20;;;;;;;22.84;49.88;100435.09;4991798;28;20032;-64
2022/07/29 06:58:20;;;;;;;5.22;1.38;;;;;;;22.95;49.17;100431.25;4996853;28;20014;-64
2022/07/29 07:00:45;;;;;;;2.47;1.27;;;;;;;23.03;48.94;100432.19;5002168;28;20034;-64
2022/07/29 07:03:11;;;;;;;6.00;1.40;;;;;;;23.13;48.10;100440.03;4985749;28;20087;-64
2022/07/29 07:05:36;;;;;;;2.55;1.38;;;;;;;23.23;47.77;100444.22;5009272;28;20026;-64
2022/07/29 07:08:02;;;;;;;2.47;1.15;;;;;;;23.39;47.56;100442.03;5009546;28;20026;-64
2022/07/29 07:10:29;;;;;;;3.47;1.30;;;;;;;23.56;47.70;100442.69;5000553;28;20038;-64
2022/07/29 07:12:54;;;;;;;3.95;1.55;;;;;;;23.66;47.96;100447.69;4986267;28;20030;-64
2022/07/29 07:15:21;;;;;;;3.85;1.30;;;;;;;23.80;47.44;100445.06;5007506;28;20026;-64
2022/07/29 07:17:48;;;;;;;2.28;1.20;;;;;;;23.97;47.13;100440.81;4988572;28;20030;-64
2022/07/29 07:20:14;;;;;;;5.28;1.50;;;;;;;24.18;46.81;100442.25;4981678;28;20042;-64
2022/07/29 07:22:40;;;;;;;3.40;1.20;;;;;;;24.41;46.26;100453.44;4995980;28;20109;-64
2022/07/29 07:25:06;;;;;;;3.50;1.10;;;;;;;24.68;45.87;100445.59;4970689;28;20049;-64
2022/07/29 07:27:31;;;;;;;2.38;1.00;;;;;;;24.91;44.83;100453.94;5006054;28;20038;-64
2022/07/29 07:29:57;;;;;;;3.05;1.30;;;;;;;25.16;44.46;100443.59;5008400;28;20077;-64
2022/07/29 07:32:23;;;;;;;3.78;1.05;;;;;;;25.38;43.50;100447.41;4986523;28;20044;-64
2022/07/29 07:34:48;;;;;;;4.25;1.10;;;;;;;25.60;43.18;100450.34;4990086;28;20053;-64
2022/07/29 07:37:14;;;;;;;4.35;1.27;;;;;;;25.82;43.43;100451.28;5005099;28;20042;-64
2022/07/29 07:39:40;;;;;;;2.28;1.02;;;;;;;26.04;43.14;100449.34;4993869;28;20103;-64
2022/07/29 07:42:06;;;;;;;3.53;1.17;;;;;;;26.24;42.60;100444.13;4995896;28;20045;-64
2022/07/29 07:44:31;;;;;;;1.67;0.93;;;;;;;26.47;42.50;100458.84;5017557;28;20453;-64
2022/07/29 07:46:57;;;;;;;3.70;0.90;;;;;;;26.70;42.64;100460.53;5001722;28;20045;-64
2022/07/29 07:49:23;;;;;;;1.70;0.90;;;;;;;26.95;41.78;100451.97;5006382;28;20053;-64
2022/07/29 07:51:48;;;;;;;5.40;0.98;;;;;;;27.15;41.32;100453.16;4992378;28;20037;-64
2022/07/29 07:54:14;;;;;;;4.55;1.27;;;;;;;27.42;41.10;100454.81;4980678;28;20030;-64
2022/07/29 07:56:40;;;;;;;5.70;1.00;;;;;;;27.65;40.73;100455.13;4993233;28;20498;-64
2022/07/29 07:59:05;;;;;;;2.53;0.90;;;;;;;27.85;40.19;100461.19;5002413;28;20030;-64
2022/07/29 08:01:31;;;;;;;6.05;1.10;;;;;;;27.96;39.60;100455.47;5010115;28;20100;-64
2022/07/29 08:03:56;;;;;;;6.57;1.20;;;;;;;28.11;39.48;100453.34;5013161;28;20040;-64
2022/07/29 08:06:23;;;;;;;4.60;1.35;;;;;;;28.17;39.23;100457.41;4998051;28;20398;-64
2022/07/29 08:08:49;;;;;;;2.22;0.95;;;;;;;28.26;39.53;100460.63;4989974;28;20435;-64
2022/07/29 08:11:14;;;;;;;4.60;0.90;;;;;;;28.27;39.06;100463.03;5003694;28;20034;-64
2022/07/29 08:13:39;;;;;;;1.48;0.80;;;;;;;28.33;39.26;100469.13;5009032;28;20053;-64
2022/07/29 08:16:12;;;;;;;4.28;0.93;;;;;;;28.37;39.13;100469.94;4984896;28;20049;-64
2022/07/29 08:18:38;;;;;;;;;;;;;;;28.35;39.07;100468.72;5008242;28;20044;-64
2022/07/29 08:21:03;;;;;;;2.50;1.00;;;;;;;28.34;39.35;100469.97;5001623;28;19917;-64
2022/07/29 08:23:38;;;;;;;3.88;1.30;;;;;;;28.32;39.14;100478.94;5007706;28;20052;-64
2022/07/29 08:26:05;;;;;;;2.22;1.00;;;;;;;28.28;39.40;100475.28;5010697;28;20064;-64
2022/07/29 08:28:31;;;;;;;6.50;1.10;;;;;;;28.25;39.61;100476.09;4983682;28;20029;-64
2022/07/29 08:30:56;;;;;;;6.43;1.30;;;;;;;28.25;39.42;100478.94;5012032;28;20029;-64
2022/07/29 08:33:22;;;;;;;5.22;1.20;;;;;;;28.22;39.52;100480.63;5008546;28;20072;-64
2022/07/29 08:35:47;;;;;;;3.28;1.05;;;;;;;28.27;39.62;100485.06;5024978;28;20537;-64
2022/07/29 08:38:13;;;;;;;3.55;1.00;;;;;;;28.34;39.12;100487.91;5016817;28;20041;-64
2022/07/29 08:40:39;;;;;;;4.22;1.20;;;;;;;28.39;39.31;100500.91;5028697;28;20038;-64
2022/07/29 08:43:08;;;;;;;6.43;1.13;;;;;;;28.43;39.24;100501.75;4988791;28;20034;-64
2022/07/29 08:45:43;;;;;;;6.93;1.27;;;;;;;28.46;39.03;100498.88;4971285;28;20043;-64
2022/07/29 08:48:08;;;;;;;4.10;1.33;;;;;;;28.51;38.85;100498.44;5019741;28;20068;-67
2022/07/29 08:50:35;;;;;;;4.53;1.25;;;;;;;28.56;39.29;100500.03;5032447;28;20109;-66
2022/07/29 08:53:00;;;;;;;2.85;1.02;;;;;;;28.56;39.27;100499.22;5016541;28;20042;-67
2022/07/29 08:55:26;;;;;;;4.90;0.90;;;;;;;28.61;38.91;100499.59;4999803;28;20030;-65
2022/07/29 08:57:51;;;;;;;5.20;1.10;;;;;;;28.60;39.45;100506.53;5006013;28;20022;-64
2022/07/29 09:00:17;;;;;;;4.88;1.23;;;;;;;28.56;38.78;100499.22;5008178;28;20033;-64
2022/07/29 09:02:45;;;;;;;5.40;1.05;;;;;;;28.61;38.94;100511.03;5016766;28;20029;-63
2022/07/29 09:05:11;;;;;;;5.28;1.38;;;;;;;28.62;39.80;100514.69;5010152;28;20033;-64
2022/07/29 09:07:36;;;;;;;4.28;1.10;;;;;;;28.64;39.31;100507.34;5007205;28;20061;-64
2022/07/29 09:10:03;;;;;;;3.72;1.23;;;;;;;28.64;39.74;100513.06;4990786;28;20121;-64
2022/07/29 09:12:29;;;;;;;4.88;1.23;;;;;;;28.67;39.05;100508.53;4996427;28;20116;-64
2022/07/29 09:14:54;;;;;;;5.22;1.60;;;;;;;28.63;38.99;100508.56;5009316;28;20100;-64
2022/07/29 09:17:40;;;;;;;5.00;1.38;;;;;;;28.69;39.33;100514.63;5017355;28;20034;-64
2022/07/29 09:20:10;;;;;;;4.63;1.35;;;;;;;28.69;38.79;100515.44;5008280;28;20060;-64
2022/07/29 09:22:35;;;;;;;3.22;1.10;;;;;;;28.70;39.04;100517.09;5011694;28;20507;-64
2022/07/29 09:25:01;;;;;;;5.00;1.10;;;;;;;28.76;39.60;100519.50;4994346;28;20025;-64
2022/07/29 09:27:28;;;;;;;5.65;1.30;;;;;;;28.78;39.31;100517.03;5019443;28;20030;-64
2022/07/29 09:30:00;;;;;;;2.47;1.08;;;;;;;28.81;39.46;100516.22;5007070;28;20033;-64
2022/07/29 09:32:26;;;;;;;3.83;1.20;;;;;;;28.85;39.16;100523.50;5009920;28;20057;-64
2022/07/29 09:35:18;;;;;;;2.95;1.20;;;;;;;28.90;38.82;100525.91;5016307;28;20052;-64
2022/07/29 09:37:44;;;;;;;3.57;1.37;;;;;;;28.92;38.50;100532.03;5026282;28;20034;-64
2022/07/29 09:40:18;;;;;;;4.80;1.15;;;;;;;28.95;38.91;100525.47;5005010;28;20547;-64
2022/07/29 09:42:44;;;;;;;4.18;1.08;;;;;;;29.03;38.33;100520.56;5024839;28;20040;-64
2022/07/29 09:45:09;;;;;;;5.55;1.30;;;;;;;29.11;38.07;100525.00;5003903;28;20399;-64
2022/07/29 09:47:47;;;;;;;3.97;1.30;;;;;;;29.21;37.93;100522.44;5017535;28;20040;-64
2022/07/29 09:50:13;;;;;;;7.65;1.30;;;;;;;29.26;37.49;100525.66;4986239;28;20057;-64
2022/07/29 09:52:49;;;;;;;4.65;0.93;;;;;;;29.35;38.13;100516.59;4990194;28;20025;-64
2022/07/29 09:55:14;;;;;;;4.85;1.35;;;;;;;29.39;37.79;100523.91;4993573;28;20030;-64
2022/07/29 09:57:40;;;;;;;4.85;1.10;;;;;;;29.47;37.79;100524.63;5031853;28;20029;-64
2022/07/29 10:00:14;;;;;;;5.30;1.23;;;;;;;29.54;37.66;100521.72;5032692;28;20034;-66
2022/07/29 10:02:43;;;;;;;4.22;1.05;;;;;;;29.66;37.72;100526.13;4985766;28;20033;-66
2022/07/29 10:05:20;;;;;;;3.67;1.20;;;;;;;29.71;36.49;100527.72;4976683;28;20045;-66
2022/07/29 10:07:50;;;;;;;2.47;1.20;;;;;;;29.82;35.81;100522.69;4993182;28;20065;-65
2022/07/29 10:10:20;;;;;;;2.72;1.17;;;;;;;29.97;36.03;100524.13;5015970;28;20034;-66
2022/07/29 10:12:57;;;;;;;3.88;1.10;;;;;;;30.11;36.14;100522.34;5025044;28;20117;-64
2022/07/29 10:15:27;;;;;;;4.72;1.08;;;;;;;30.26;35.92;100515.22;5001109;28;20037;-65
2022/07/29 10:17:54;;;;;;;3.83;1.23;;;;;;;30.40;35.93;100517.91;5022422;28;20084;-65
2022/07/29 10:20:20;;;;;;;2.90;1.00;;;;;;;30.58;35.43;100519.69;5004036;28;20192;-64
2022/07/29 10:22:47;;;;;;;4.35;1.17;;;;;;;30.74;35.27;100519.88;4997433;28;20034;-65
2022/07/29 10:25:12;;;;;;;4.10;0.88;;;;;;;30.93;35.35;100522.06;5005797;28;20038;-65
2022/07/29 10:27:39;;;;;;;5.30;1.40;;;;;;;31.09;34.09;100517.69;5022799;28;20044;-65
2022/07/29 10:30:05;;;;;;;6.03;1.40;;;;;;;31.29;33.41;100526.38;5008840;28;20059;-75
2022/07/29 10:32:37;;;;;;;3.78;1.10;;;;;;;31.47;34.15;100528.97;5011018;28;20033;-75
2022/07/29 10:35:27;;;;;;;4.38;1.23;;;;;;;31.65;33.44;100532.31;5014076;28;20067;-74
2022/07/29 10:38:29;;;;;;;4.90;1.30;;;;;;;31.83;33.05;100532.78;5010843;28;20045;-74
2022/07/29 10:41:26;;;;;;;3.42;0.90;;;;;;;31.98;32.74;100532.50;5010516;28;20026;-75
2022/07/29 10:44:03;;;;;;;5.30;1.15;;;;;;;32.00;32.21;100530.81;5011742;28;20076;-75
2022/07/29 10:46:38;;;;;;;6.05;1.30;;;;;;;32.13;32.52;100533.84;4998513;28;20033;-75
2022/07/29 10:49:24;;;;;;;4.35;0.90;;;;;;;32.23;32.29;100535.69;4972502;28;20034;-74
2022/07/29 10:52:03;;;;;;;6.35;1.25;;;;;;;32.34;32.24;100535.44;5000442;28;20038;-75
2022/07/29 10:54:34;;;;;;;5.38;1.15;;;;;;;32.42;32.10;100538.97;4995539;28;20034;-74
2022/07/29 10:57:16;;;;;;;2.33;1.08;;;;;;;32.47;32.20;100536.41;5022390;28;20033;-74
2022/07/29 10:59:43;;;;;;;4.97;1.00;;;;;;;32.56;31.50;100532.94;5021574;28;20025;-74
2022/07/29 11:02:35;;;;;;;2.80;1.13;;;;;;;32.69;32.16;100531.00;5008752;28;20029;-74
2022/07/29 11:05:05;;;;;;;;;;;;;;;32.78;31.29;100543.94;5027068;28;20038;-74
2022/07/29 11:07:30;;;;;;;3.88;1.00;;;;;;;32.83;31.49;100541.34;5032555;28;19913;-74
2022/07/29 11:10:11;;;;;;;5.85;1.08;;;;;;;32.84;30.85;100540.09;5016917;28;20029;-74
2022/07/29 11:12:36;;;;;;;6.45;1.20;;;;;;;32.88;30.81;100537.16;5018482;28;20041;-75
2022/07/29 11:15:06;;;;;;;6.63;1.13;;;;;;;32.94;31.27;100532.47;5025246;28;20080;-75
2022/07/29 11:18:08;;;;;;;5.00;1.13;;;;;;;33.01;30.97;100534.38;5011664;28;20041;-74
2022/07/29 11:20:41;;;;;;;5.38;1.05;;;;;;;33.06;31.01;100537.53;4975112;28;20058;-75
2022/07/29 11:23:27;;;;;;;3.25;1.08;;;;;;;33.10;30.66;100528.84;4951756;28;20518;-75
2022/07/29 11:26:21;;;;;;;4.55;1.40;;;;;;;33.17;31.38;100534.41;5002576;28;20474;-74
2022/07/29 11:29:03;;;;;;;6.85;1.10;;;;;;;33.27;31.67;100530.44;4994481;28;20039;-75
2022/07/29 11:31:42;;;;;;;2.35;0.95;;;;;;;33.42;31.18;100542.38;4980662;28;20034;-75
2022/07/29 11:34:21;;;;;;;2.97;0.80;;;;;;;33.53;30.43;100548.69;4999238;28;20058;-74